Time;durP1;ratioP1;P1;durP2;ratioP2;P2;SDS_P1;SDS_P2;PMS_P1;PMS_P2;Temp;Humidity;BMP_temperature;BMP_pressure;BME280_temperature;BME280_humidity;BME280_pressure;Samples;Min_cycle;Max_cycle;Signal;HPM_P1;HPM_P2
2022/11/13 00:01:30;;;;;;;17.10;4.70;;;;;;;2.44;100.00;96791.75;5094918;28;24441;-72
2022/11/13 00:03:58;;;;;;;5.72;4.55;;;;;;;2.51;100.00;96788.25;5091064;28;24430;-73
2022/11/13 00:06:25;;;;;;;11.45;5.30;;;;;;;2.54;100.00;96789.94;5095833;28;24478;-72
2022/11/13 00:08:56;;;;;;;13.38;5.45;;;;;;;2.45;100.00;96787.50;5100921;28;24797;-72
2022/11/13 00:11:23;;;;;;;12.52;4.82;;;;;;;2.47;100.00;96788.31;5085336;28;24434;-72
2022/11/13 00:13:49;;;;;;;18.98;5.10;;;;;;;2.50;100.00;96783.19;5103628;28;24808;-72
2022/11/13 00:16:18;;;;;;;7.50;5.03;;;;;;;2.38;100.00;96779.09;5099677;28;24796;-72
2022/11/13 00:18:47;;;;;;;18.40;5.13;;;;;;;2.33;100.00;96781.69;5087458;28;24442;-72
2022/11/13 00:21:16;;;;;;;6.15;4.80;;;;;;;2.32;100.00;96781.72;5095903;28;24458;-71
2022/11/13 00:23:43;;;;;;;11.25;4.78;;;;;;;2.39;100.00;96778.22;5099187;28;24441;-73
2022/11/13 00:26:11;;;;;;;7.63;5.15;;;;;;;2.51;100.00;96779.75;5100902;28;25011;-72
2022/11/13 00:28:38;;;;;;;13.82;5.65;;;;;;;2.57;100.00;96772.81;5087820;28;24445;-72
2022/11/13 00:31:06;;;;;;;12.75;4.75;;;;;;;2.39;100.00;96770.53;5091021;28;24453;-72
2022/11/13 00:33:34;;;;;;;8.75;5.47;;;;;;;2.29;100.00;96774.94;5101694;28;24456;-72
2022/11/13 00:36:07;;;;;;;11.52;5.03;;;;;;;2.35;100.00;96768.91;5102415;28;24434;-72
2022/11/13 00:38:34;;;;;;;13.23;5.10;;;;;;;2.27;100.00;96763.06;5088761;28;24457;-71
2022/11/13 00:41:01;;;;;;;13.23;4.95;;;;;;;2.23;100.00;96763.97;5102578;28;24507;-72
2022/11/13 00:43:28;;;;;;;9.02;5.20;;;;;;;2.06;100.00;96765.03;5102260;28;24437;-72
2022/11/13 00:45:54;;;;;;;7.00;5.03;;;;;;;2.02;100.00;96757.44;5094743;28;24438;-73
2022/11/13 00:48:21;;;;;;;16.77;6.00;;;;;;;2.08;100.00;96760.75;5100972;28;24437;-72
2022/11/13 00:50:48;;;;;;;7.05;4.65;;;;;;;1.79;100.00;96756.03;5098305;28;25014;-73
2022/11/13 00:53:16;;;;;;;12.85;4.75;;;;;;;1.74;100.00;96756.94;5102722;28;24432;-72
2022/11/13 00:55:43;;;;;;;8.27;5.35;;;;;;;1.63;100.00;96747.72;5099271;28;24445;-72
2022/11/13 00:58:10;;;;;;;13.48;5.35;;;;;;;1.64;100.00;96749.41;5100980;28;24512;-71
2022/11/13 01:00:37;;;;;;;14.20;5.23;;;;;;;1.63;100.00;96747.72;5101063;28;24482;-72
2022/11/13 01:03:03;;;;;;;12.18;4.93;;;;;;;1.55;100.00;96749.50;5102515;28;24433;-72
2022/11/13 01:05:30;;;;;;;19.33;5.05;;;;;;;1.44;100.00;96747.06;5104696;28;24438;-72
2022/11/13 01:07:57;;;;;;;8.90;5.03;;;;;;;1.43;100.00;96747.09;5095168;28;24438;-73
2022/11/13 01:10:25;;;;;;;8.32;4.35;;;;;;;1.47;100.00;96735.97;5105348;28;24433;-73
2022/11/13 01:12:51;;;;;;;7.57;4.38;;;;;;;1.49;100.00;96733.44;5100815;28;24429;-72
2022/11/13 01:15:18;;;;;;;11.52;4.55;;;;;;;1.44;100.00;96729.19;5103287;28;24441;-72
2022/11/13 01:17:44;;;;;;;7.32;4.88;;;;;;;1.37;100.00;96730.16;5101361;28;25002;-72
2022/11/13 01:20:11;;;;;;;9.38;4.85;;;;;;;1.42;100.00;96727.53;5097157;28;24991;-72
2022/11/13 01:22:38;;;;;;;6.47;4.17;;;;;;;1.47;100.00;96723.22;5103223;28;24444;-72
2022/11/13 01:25:05;;;;;;;7.78;4.53;;;;;;;1.41;100.00;96720.75;5098330;28;24430;-72
2022/11/13 01:27:36;;;;;;;6.65;4.75;;;;;;;1.41;100.00;96715.66;5099544;28;24441;-72
2022/11/13 01:30:02;;;;;;;7.80;5.15;;;;;;;1.42;100.00;96709.66;5101857;28;24448;-73
2022/11/13 01:32:29;;;;;;;6.90;5.55;;;;;;;1.38;100.00;96710.56;5101956;28;24433;-73
2022/11/13 01:34:55;;;;;;;6.10;5.50;;;;;;;1.41;100.00;96700.34;5096573;28;24474;-73
2022/11/13 01:37:22;;;;;;;10.25;5.10;;;;;;;1.27;100.00;96702.19;5092042;28;25014;-72
2022/11/13 01:39:48;;;;;;;5.22;4.72;;;;;;;1.35;100.00;96697.84;5100500;28;24445;-72
2022/11/13 01:42:15;;;;;;;7.00;5.07;;;;;;;1.38;100.00;96697.81;5097098;28;24799;-72
2022/11/13 01:44:51;;;;;;;5.32;4.68;;;;;;;1.39;100.00;96695.22;5099403;28;24441;-71
2022/11/13 01:47:19;;;;;;;5.65;4.75;;;;;;;1.38;100.00;96695.25;5105320;28;24433;-72
2022/11/13 01:49:47;;;;;;;5.78;4.65;;;;;;;1.42;100.00;96686.69;5102895;28;24513;-71
2022/11/13 01:52:17;;;;;;;8.40;4.78;;;;;;;1.38;100.00;96685.06;5106415;28;24437;-73
2022/11/13 01:54:48;;;;;;;8.68;4.07;;;;;;;1.31;100.00;96683.44;5102331;28;24465;-73
2022/11/13 01:57:16;;;;;;;7.68;3.60;;;;;;;1.33;100.00;96672.31;5104525;28;24453;-73
2022/11/13 01:59:47;;;;;;;8.50;4.00;;;;;;;1.37;100.00;96673.13;5102746;28;24445;-73
2022/11/13 02:02:15;;;;;;;9.95;4.43;;;;;;;1.29;100.00;96674.94;5102673;28;24429;-73
2022/11/13 02:04:42;;;;;;;4.47;4.07;;;;;;;1.32;100.00;96674.91;5096450;28;24828;-73
2022/11/13 02:07:10;;;;;;;5.45;4.10;;;;;;;1.18;100.00;96668.25;5104712;28;24434;-73
2022/11/13 02:09:41;;;;;;;6.38;4.25;;;;;;;1.08;100.00;96674.34;5099870;28;24438;-73
2022/11/13 02:12:10;;;;;;;4.80;3.60;;;;;;;1.07;100.00;96664.97;5093395;28;24460;-72
2022/11/13 02:14:41;;;;;;;5.22;4.30;;;;;;;1.17;100.00;96663.16;5096192;28;24835;-71
2022/11/13 02:17:11;;;;;;;5.25;4.50;;;;;;;1.14;100.00;96661.50;5103779;28;24439;-71
2022/11/13 02:19:42;;;;;;;6.28;4.85;;;;;;;1.16;100.00;96662.31;5105071;28;24444;-71
2022/11/13 02:22:15;;;;;;;4.75;4.32;;;;;;;1.13;100.00;96651.31;5097766;28;24437;-71
2022/11/13 02:24:45;;;;;;;4.78;3.92;;;;;;;1.17;100.00;96651.25;5095621;28;25010;-71
2022/11/13 02:27:20;;;;;;;4.27;3.87;;;;;;;1.19;100.00;96649.53;5103370;28;24433;-72
2022/11/13 02:29:46;;;;;;;14.45;4.45;;;;;;;1.23;100.00;96639.31;5104285;28;25056;-73
2022/11/13 02:32:13;;;;;;;13.27;4.38;;;;;;;1.37;100.00;96643.38;5105064;28;24445;-73
2022/11/13 02:34:39;;;;;;;19.80;4.95;;;;;;;1.44;100.00;96633.91;5103514;28;24428;-72
2022/11/13 02:37:06;;;;;;;12.57;4.82;;;;;;;1.41;100.00;96633.97;5099082;28;24442;-72
2022/11/13 02:39:32;;;;;;;21.42;4.60;;;;;;;1.44;100.00;96637.28;5101463;28;24438;-72
2022/11/13 02:42:00;;;;;;;27.95;6.25;;;;;;;1.41;100.00;96639.06;5104514;28;24443;-72
2022/11/13 02:44:27;;;;;;;12.48;5.70;;;;;;;1.34;100.00;96633.19;5091437;28;24449;-72
2022/11/13 02:46:53;;;;;;;14.65;5.10;;;;;;;1.32;100.00;96639.19;5098030;28;24697;-72
2022/11/13 02:49:20;;;;;;;12.50;5.03;;;;;;;1.28;100.00;96629.88;5095934;28;24998;-72
2022/11/13 02:51:47;;;;;;;25.70;5.28;;;;;;;1.18;100.00;96635.06;5101262;28;24811;-72
2022/11/13 02:54:13;;;;;;;13.50;4.60;;;;;;;1.26;100.00;96629.03;5090140;28;24438;-72
2022/11/13 02:56:40;;;;;;;13.05;5.10;;;;;;;1.19;100.00;96629.13;5091124;28;24442;-72
2022/11/13 02:59:08;;;;;;;14.60;5.47;;;;;;;1.04;100.00;96626.75;5092701;28;24450;-73
2022/11/13 03:01:34;;;;;;;7.10;4.53;;;;;;;1.05;100.00;96620.78;5093007;28;24800;-72
2022/11/13 03:04:01;;;;;;;7.97;4.18;;;;;;;0.97;100.00;96622.59;5104218;28;24440;-72
2022/11/13 03:06:27;;;;;;;6.80;4.10;;;;;;;0.92;100.00;96619.22;5093561;28;24445;-72
2022/11/13 03:08:54;;;;;;;5.82;4.28;;;;;;;0.89;100.00;96614.16;5083831;28;24427;-72
2022/11/13 03:11:20;;;;;;;4.60;4.15;;;;;;;0.77;100.00;96611.75;5094801;28;24772;-72
2022/11/13 03:13:47;;;;;;;10.93;4.30;;;;;;;0.68;100.00;96605.91;5101147;28;24429;-73
2022/11/13 03:16:17;;;;;;;5.22;4.00;;;;;;;0.61;100.00;96613.63;5082897;28;24793;-72
2022/11/13 03:18:43;;;;;;;4.55;4.13;;;;;;;0.63;100.00;96604.25;5100461;28;24445;-72
2022/11/13 03:21:12;;;;;;;5.38;4.03;;;;;;;0.58;100.00;96606.84;5098663;28;25038;-72
2022/11/13 03:23:39;;;;;;;4.60;3.70;;;;;;;0.64;100.00;96604.25;5094317;28;24461;-72
2022/11/13 03:26:07;;;;;;;4.30;3.90;;;;;;;0.65;100.00;96600.00;5105245;28;24441;-71
2022/11/13 03:28:35;;;;;;;5.63;4.30;;;;;;;0.57;100.00;96601.78;5103046;28;25300;-71
2022/11/13 03:31:01;;;;;;;7.22;4.40;;;;;;;0.58;100.00;96599.22;5096163;28;24796;-71
2022/11/13 03:33:30;;;;;;;9.32;4.10;;;;;;;0.42;100.00;96603.63;5106719;28;24429;-71
2022/11/13 03:35:56;;;;;;;4.07;3.67;;;;;;;0.44;100.00;96595.94;5104187;28;24442;-72
2022/11/13 03:38:23;;;;;;;5.65;4.18;;;;;;;0.53;100.00;96605.22;5101067;28;24457;-72
2022/11/13 03:40:50;;;;;;;4.65;4.25;;;;;;;0.57;100.00;96601.78;5105521;28;24437;-71
2022/11/13 03:43:17;;;;;;;3.97;3.58;;;;;;;0.57;100.00;96605.16;5090888;28;24437;-71
2022/11/13 03:45:44;;;;;;;4.05;3.45;;;;;;;0.52;100.00;96601.84;5096480;28;24437;-71
2022/11/13 03:48:11;;;;;;;4.38;3.35;;;;;;;0.69;100.00;96602.47;5102091;28;24483;-71
2022/11/13 03:50:39;;;;;;;4.78;3.40;;;;;;;0.78;100.00;96609.22;5104090;28;24537;-71
2022/11/13 03:53:06;;;;;;;5.87;3.87;;;;;;;0.76;100.00;96603.28;5096425;28;24480;-71
2022/11/13 03:55:32;;;;;;;5.95;4.00;;;;;;;0.76;100.00;96599.88;5099261;28;24434;-71
2022/11/13 03:57:58;;;;;;;4.57;3.67;;;;;;;0.74;100.00;96592.22;5104838;28;24824;-72
2022/11/13 04:00:25;;;;;;;4.32;3.92;;;;;;;0.83;100.00;96597.25;5109456;28;24440;-72
2022/11/13 04:02:52;;;;;;;5.18;3.90;;;;;;;0.77;100.00;96583.72;5103192;28;24775;-72
2022/11/13 04:05:18;;;;;;;5.95;4.65;;;;;;;0.86;100.00;96583.63;5096205;28;24434;-72
2022/11/13 04:07:46;;;;;;;7.00;4.60;;;;;;;0.90;100.00;96583.56;5091219;28;24438;-71
2022/11/13 04:10:13;;;;;;;5.20;4.40;;;;;;;0.88;100.00;96584.44;5105173;28;24445;-71
2022/11/13 04:12:39;;;;;;;7.07;4.70;;;;;;;0.78;100.00;96581.16;5093540;28;24434;-71
2022/11/13 04:15:07;;;;;;;8.45;4.90;;;;;;;0.76;100.00;96582.88;5098420;28;24441;-71
2022/11/13 04:17:33;;;;;;;6.43;5.00;;;;;;;0.76;100.00;96579.47;5096111;28;24435;-71
2022/11/13 04:20:00;;;;;;;5.75;4.85;;;;;;;0.79;100.00;96574.34;5085223;28;25015;-71
2022/11/13 04:22:26;;;;;;;7.88;5.82;;;;;;;0.86;100.00;96569.16;5096130;28;24444;-72
2022/11/13 04:24:54;;;;;;;6.90;5.45;;;;;;;0.92;100.00;96576.72;5098899;28;24445;-72
2022/11/13 04:27:21;;;;;;;8.67;5.70;;;;;;;1.00;100.00;96566.41;5102324;28;24474;-72
2022/11/13 04:29:47;;;;;;;20.88;5.85;;;;;;;0.96;100.00;96569.88;5100442;28;25018;-72
2022/11/13 04:32:14;;;;;;;7.88;5.82;;;;;;;0.94;100.00;96576.72;5101412;28;24434;-72
2022/11/13 04:34:40;;;;;;;8.07;5.72;;;;;;;1.08;100.00;96566.34;5104784;28;24429;-71
2022/11/13 04:37:07;;;;;;;8.80;3.60;;;;;;;0.91;100.00;96569.94;5104871;28;24453;-72
2022/11/13 04:39:33;;;;;;;6.70;3.53;;;;;;;1.05;100.00;96563.84;5105862;28;24458;-72
2022/11/13 04:44:45;;;;;;;8.70;3.95;;;;;;;1.05;100.00;96563.84;5093977;28;25020;-71
2022/11/13 04:47:12;;;;;;;6.25;3.78;;;;;;;0.99;100.00;96554.53;5104431;28;24438;-71
2022/11/13 04:49:39;;;;;;;9.18;4.53;;;;;;;0.97;100.00;96553.72;5105785;28;24449;-71
2022/11/13 04:52:05;;;;;;;4.20;3.60;;;;;;;0.87;100.00;96550.44;5099584;28;24430;-71
2022/11/13 04:54:32;;;;;;;3.47;3.17;;;;;;;0.83;100.00;96553.06;5105200;28;24522;-71
2022/11/13 04:56:59;;;;;;;3.70;3.40;;;;;;;0.76;100.00;96549.72;5102081;28;24835;-73
2022/11/13 04:59:26;;;;;;;4.07;3.28;;;;;;;0.77;100.00;96537.81;5108476;28;24476;-72
2022/11/13 05:01:54;;;;;;;3.95;3.22;;;;;;;0.78;100.00;96537.81;5091050;28;24972;-72
2022/11/13 05:04:21;;;;;;;5.05;3.85;;;;;;;0.80;100.00;96540.34;5099357;28;24500;-73
2022/11/13 05:06:48;;;;;;;5.53;3.87;;;;;;;0.71;100.00;96539.59;5089768;28;24438;-72
2022/11/13 05:09:15;;;;;;;5.93;4.80;;;;;;;0.64;100.00;96539.69;5096862;28;24440;-72
2022/11/13 05:11:41;;;;;;;4.75;4.25;;;;;;;0.73;100.00;96535.28;5099057;28;24434;-72
2022/11/13 05:14:08;;;;;;;4.53;4.00;;;;;;;0.71;100.00;96534.50;5096795;28;24445;-72
2022/11/13 05:16:36;;;;;;;8.75;4.70;;;;;;;0.43;100.00;96541.59;5097080;28;24445;-72
2022/11/13 05:19:05;;;;;;;4.97;3.13;;;;;;;0.55;100.00;96535.50;5096717;28;24456;-72
2022/11/13 05:21:32;;;;;;;8.27;3.60;;;;;;;0.57;100.00;96533.81;5098965;28;24519;-73
2022/11/13 05:23:59;;;;;;;5.90;3.92;;;;;;;0.66;100.00;96538.78;5100059;28;25127;-72
2022/11/13 05:26:26;;;;;;;4.85;4.07;;;;;;;0.65;100.00;96543.91;5101140;28;24511;-72
2022/11/13 05:28:52;;;;;;;5.47;4.70;;;;;;;0.52;100.00;96534.69;5102988;28;24438;-73
2022/11/13 05:31:19;;;;;;;6.70;5.10;;;;;;;0.47;100.00;96533.03;5100270;28;24442;-72
2022/11/13 05:33:48;;;;;;;6.27;5.03;;;;;;;0.46;100.00;96528.81;5101952;28;24983;-71
2022/11/13 05:36:16;;;;;;;9.32;5.20;;;;;;;0.50;100.00;96523.69;5092010;28;24445;-72
2022/11/13 05:38:43;;;;;;;7.70;5.22;;;;;;;0.45;100.00;96518.66;5093935;28;24445;-71
2022/11/13 05:41:12;;;;;;;12.57;4.38;;;;;;;0.56;100.00;96521.94;5106397;28;24444;-72
2022/11/13 05:43:39;;;;;;;7.80;3.95;;;;;;;0.48;100.00;96521.16;5097892;28;24437;-73
2022/11/13 05:46:09;;;;;;;8.43;4.05;;;;;;;0.32;100.00;96512.00;5096469;28;24436;-72
2022/11/13 05:48:36;;;;;;;15.57;4.60;;;;;;;0.17;100.00;96520.63;5098582;28;24430;-72
2022/11/13 05:51:06;;;;;;;14.13;4.00;;;;;;;0.06;100.00;96513.09;5096540;28;24437;-71
2022/11/13 05:53:34;;;;;;;11.90;4.13;;;;;;;0.14;100.00;96518.97;5095040;28;24468;-71
2022/11/13 05:56:01;;;;;;;6.63;4.00;;;;;;;0.09;100.00;96505.44;5082553;28;24441;-71
2022/11/13 05:58:28;;;;;;;7.57;3.92;;;;;;;0.10;100.00;96506.28;5084116;28;24457;-72
2022/11/13 06:01:05;;;;;;;5.55;4.30;;;;;;;0.10;100.00;96502.03;5106895;28;24891;-72
2022/11/13 06:03:31;;;;;;;5.65;4.43;;;;;;;0.13;100.00;96499.44;5102491;28;25002;-72
2022/11/13 06:05:58;;;;;;;4.30;3.90;;;;;;;0.11;100.00;96491.00;5101678;28;24436;-72
2022/11/13 06:08:26;;;;;;;4.80;3.83;;;;;;;0.23;100.00;96485.75;5108232;28;24436;-72
2022/11/13 06:10:53;;;;;;;8.90;4.15;;;;;;;0.29;100.00;96491.63;5097373;28;24449;-73
2022/11/13 06:13:20;;;;;;;6.43;4.20;;;;;;;0.21;100.00;96495.09;5092653;28;24448;-72
2022/11/13 06:15:46;;;;;;;5.60;4.40;;;;;;;0.25;100.00;96488.28;5090387;28;24465;-72
2022/11/13 06:18:13;;;;;;;6.07;4.68;;;;;;;0.34;100.00;96497.53;5090969;28;24437;-73
2022/11/13 06:20:39;;;;;;;5.75;4.10;;;;;;;0.26;100.00;96487.44;5092967;28;24525;-73
2022/11/13 06:23:06;;;;;;;7.55;4.65;;;;;;;0.10;100.00;96486.75;5099852;28;25022;-72
2022/11/13 06:25:34;;;;;;;10.40;6.72;;;;;;;-0.01;100.00;96486.84;5090064;28;24440;-72
2022/11/13 06:28:00;;;;;;;12.35;7.50;;;;;;;0.15;100.00;96487.56;5095448;28;24431;-72
2022/11/13 06:30:27;;;;;;;8.45;5.85;;;;;;;0.09;100.00;96481.69;5105174;28;24446;-72
2022/11/13 06:32:53;;;;;;;9.70;6.00;;;;;;;-0.09;100.00;96485.25;5101811;28;24483;-72
2022/11/13 06:35:20;;;;;;;8.35;6.60;;;;;;;-0.07;100.00;96483.53;5089358;28;24444;-72
2022/11/13 06:37:46;;;;;;;11.63;7.13;;;;;;;-0.04;100.00;96474.16;5081823;28;25007;-72
2022/11/13 06:40:13;;;;;;;12.52;7.97;;;;;;;0.00;100.00;96474.97;5089084;28;24481;-72
2022/11/13 06:42:41;;;;;;;8.15;6.38;;;;;;;0.03;100.00;96482.56;5096014;28;24434;-73
2022/11/13 06:45:09;;;;;;;8.35;6.03;;;;;;;-0.05;100.00;96479.25;5099670;28;24429;-72
2022/11/13 06:47:35;;;;;;;8.30;6.45;;;;;;;0.01;100.00;96486.00;5102032;28;24437;-72
2022/11/13 06:50:02;;;;;;;8.82;6.30;;;;;;;0.09;100.00;96468.94;5087366;28;24575;-72
2022/11/13 06:52:28;;;;;;;7.10;5.60;;;;;;;0.12;100.00;96469.75;5095984;28;24430;-72
2022/11/13 06:54:55;;;;;;;7.47;5.90;;;;;;;0.22;100.00;96465.38;5100980;28;24551;-72
2022/11/13 06:57:21;;;;;;;10.35;6.00;;;;;;;0.23;100.00;96469.63;5093716;28;24436;-73
2022/11/13 06:59:49;;;;;;;9.05;6.00;;;;;;;0.23;100.00;96473.03;5087934;28;24827;-73
2022/11/13 07:02:15;;;;;;;6.80;6.07;;;;;;;0.29;100.00;96469.53;5093987;28;24440;-73
2022/11/13 07:04:42;;;;;;;6.70;6.00;;;;;;;0.36;100.00;96470.31;5104082;28;24455;-72
2022/11/13 07:07:08;;;;;;;18.43;5.90;;;;;;;0.36;100.00;96465.22;5081895;28;24523;-71
2022/11/13 07:09:35;;;;;;;9.68;5.70;;;;;;;0.47;100.00;96465.94;5089019;28;24800;-73
2022/11/13 07:12:01;;;;;;;6.32;4.90;;;;;;;0.51;100.00;96456.56;5088785;28;24445;-72
2022/11/13 07:14:28;;;;;;;15.70;5.78;;;;;;;0.53;100.00;96458.22;5093600;28;24460;-72
2022/11/13 07:16:56;;;;;;;5.65;5.13;;;;;;;0.61;100.00;96455.59;5098939;28;24538;-73
2022/11/13 07:19:22;;;;;;;6.20;5.50;;;;;;;0.65;100.00;96450.41;5103024;28;24465;-72
2022/11/13 07:21:49;;;;;;;6.93;6.22;;;;;;;0.64;100.00;96446.19;5094556;28;24459;-73
2022/11/13 07:24:15;;;;;;;9.43;6.72;;;;;;;0.68;100.00;96455.50;5099661;28;24803;-72
2022/11/13 07:26:42;;;;;;;13.40;7.25;;;;;;;0.69;100.00;96449.50;5103915;28;24441;-72
2022/11/13 07:29:08;;;;;;;15.60;8.27;;;;;;;0.73;100.00;96446.06;5097998;28;25025;-72
2022/11/13 07:31:35;;;;;;;14.25;8.65;;;;;;;0.84;100.00;96442.53;5097793;28;24448;-72
2022/11/13 07:34:03;;;;;;;8.18;6.80;;;;;;;1.04;100.00;96439.69;5092433;28;24430;-72
2022/11/13 07:36:29;;;;;;;11.88;6.25;;;;;;;1.18;100.00;96430.13;5097716;28;24430;-72
2022/11/13 07:38:56;;;;;;;7.82;6.13;;;;;;;1.36;100.00;96432.38;5095935;28;24445;-72
2022/11/13 07:41:22;;;;;;;10.93;6.55;;;;;;;1.54;100.00;96425.28;5095224;28;24461;-72
2022/11/13 07:43:48;;;;;;;8.32;6.85;;;;;;;1.59;100.00;96433.72;5094613;28;24449;-72
2022/11/13 07:46:15;;;;;;;7.47;5.90;;;;;;;1.73;100.00;96436.03;5102136;28;25008;-72
2022/11/13 07:48:41;;;;;;;6.57;5.43;;;;;;;1.76;100.00;96435.97;5101029;28;24441;-72
2022/11/13 07:51:09;;;;;;;5.55;4.90;;;;;;;1.52;100.00;96433.00;5096513;28;24438;-72
2022/11/13 07:53:37;;;;;;;6.30;5.03;;;;;;;1.63;100.00;96420.03;5096954;28;24876;-72
2022/11/13 07:56:05;;;;;;;5.45;4.40;;;;;;;1.82;100.00;96425.66;5093572;28;24488;-68
2022/11/13 07:58:32;;;;;;;6.60;4.10;;;;;;;2.07;100.00;96421.75;5089578;28;24441;-72
2022/11/13 08:01:03;;;;;;;5.47;4.72;;;;;;;2.21;100.00;96416.41;5087267;28;24473;-73
2022/11/13 08:03:30;;;;;;;6.37;5.67;;;;;;;2.38;100.00;96409.25;5093722;28;24442;-72
2022/11/13 08:06:01;;;;;;;6.82;5.60;;;;;;;2.57;100.00;96413.97;5093809;28;24434;-72
2022/11/13 08:08:29;;;;;;;6.55;5.78;;;;;;;2.54;100.00;96411.47;5091399;28;24456;-72
2022/11/13 08:10:55;;;;;;;6.97;5.53;;;;;;;2.69;100.00;96415.44;5093375;28;24445;-72
2022/11/13 08:13:22;;;;;;;8.98;5.75;;;;;;;2.90;100.00;96414.97;5096568;28;24484;-72
2022/11/13 08:15:48;;;;;;;6.57;5.00;;;;;;;3.18;100.00;96407.47;5093166;28;24430;-72
2022/11/13 08:18:15;;;;;;;5.90;4.95;;;;;;;3.40;100.00;96423.16;5094367;28;24435;-72
2022/11/13 08:20:41;;;;;;;5.63;4.88;;;;;;;3.48;100.00;96417.88;5093058;28;24457;-72
2022/11/13 08:23:09;;;;;;;8.03;5.30;;;;;;;3.61;100.00;96414.13;5096304;28;24441;-72
2022/11/13 08:25:37;;;;;;;9.20;5.10;;;;;;;3.70;100.00;96411.31;5093207;28;24434;-72
2022/11/13 08:28:04;;;;;;;8.77;6.28;;;;;;;3.76;100.00;96408.63;5092699;28;24433;-72
2022/11/13 08:30:31;;;;;;;7.35;6.25;;;;;;;3.89;100.00;96401.44;5094879;28;25002;-72
2022/11/13 08:32:57;;;;;;;5.30;4.75;;;;;;;4.05;100.00;96397.59;5091822;28;24517;-72
2022/11/13 08:35:24;;;;;;;6.50;4.75;;;;;;;4.22;100.00;96398.84;5089746;28;24442;-72
2022/11/13 08:37:51;;;;;;;5.22;4.07;;;;;;;4.46;100.00;96382.78;5085097;28;25006;-72
2022/11/13 08:40:17;;;;;;;4.78;4.10;;;;;;;4.71;100.00;96364.06;5089645;28;24458;-72
2022/11/13 08:42:45;;;;;;;5.20;4.25;;;;;;;4.87;100.00;96369.59;5091595;28;24438;-69
2022/11/13 08:45:12;;;;;;;5.50;4.35;;;;;;;5.16;100.00;96368.69;5092524;28;24445;-72
2022/11/13 08:47:39;;;;;;;4.65;4.10;;;;;;;5.30;100.00;96369.06;5093670;28;24436;-72
2022/11/13 08:50:06;;;;;;;4.97;4.28;;;;;;;5.48;100.00;96363.34;5093298;28;24945;-72
2022/11/13 08:52:33;;;;;;;6.93;5.50;;;;;;;5.82;100.00;96365.63;5092610;28;24430;-72
2022/11/13 08:54:59;;;;;;;5.45;4.57;;;;;;;5.96;100.00;96366.91;5097601;28;24436;-70
2022/11/13 08:57:26;;;;;;;4.50;4.10;;;;;;;6.18;100.00;96362.66;5090619;28;24987;-70
2022/11/13 08:59:54;;;;;;;7.63;6.63;;;;;;;5.92;100.00;96365.28;5092052;28;24465;-71
2022/11/13 09:02:20;;;;;;;12.10;7.43;;;;;;;5.69;100.00;96360.94;5088521;28;24925;-71
2022/11/13 09:04:47;;;;;;;8.68;7.20;;;;;;;5.81;100.00;96361.34;5084558;28;24430;-70
2022/11/13 09:07:13;;;;;;;7.35;6.65;;;;;;;6.09;100.00;96359.59;5088088;28;24496;-70
2022/11/13 09:09:40;;;;;;;7.75;6.13;;;;;;;6.35;100.00;96351.78;5084013;28;24438;-70
2022/11/13 09:12:06;;;;;;;6.78;6.07;;;;;;;6.53;100.00;96361.38;5088302;28;24469;-70
2022/11/13 09:14:33;;;;;;;7.07;5.47;;;;;;;6.88;100.00;96361.78;5099640;28;24433;-70
2022/11/13 09:17:01;;;;;;;6.57;4.68;;;;;;;7.14;100.00;96367.66;5104989;28;24445;-70
2022/11/13 09:19:27;;;;;;;10.32;7.82;;;;;;;7.11;100.00;96360.03;5101610;28;24465;-70
2022/11/13 09:21:54;;;;;;;8.30;7.50;;;;;;;6.91;100.00;96351.34;5107974;28;24498;-70
2022/11/13 09:24:21;;;;;;;8.65;7.20;;;;;;;6.57;100.00;96349.25;5102410;28;24453;-70
2022/11/13 09:26:47;;;;;;;7.82;7.03;;;;;;;6.56;100.00;96360.41;5094982;28;24457;-71
2022/11/13 09:29:14;;;;;;;6.30;5.60;;;;;;;6.60;100.00;96349.13;5105264;28;24448;-70
2022/11/13 09:31:40;;;;;;;6.18;5.57;;;;;;;6.82;100.00;96346.56;5109954;28;24487;-70
2022/11/13 09:34:08;;;;;;;7.20;5.85;;;;;;;7.22;100.00;96350.97;5100997;28;25084;-70
2022/11/13 09:36:35;;;;;;;8.75;6.47;;;;;;;7.61;100.00;96347.69;5095357;28;25003;-70
2022/11/13 09:39:02;;;;;;;13.25;5.90;;;;;;;7.89;100.00;96344.75;5091580;28;25043;-71
2022/11/13 09:41:33;;;;;;;4.70;3.60;;;;;;;8.43;100.00;96342.44;5090697;28;24453;-71
2022/11/13 09:44:03;;;;;;;4.38;3.65;;;;;;;8.69;100.00;96349.81;5089474;28;24437;-71
2022/11/13 09:46:37;;;;;;;3.70;3.05;;;;;;;8.80;100.00;96343.34;5102475;28;21081;-71
2022/11/13 09:49:15;;;;;;;3.67;3.35;;;;;;;9.06;100.00;96336.94;5099237;28;20767;-71
2022/11/13 09:51:45;;;;;;;3.77;3.40;;;;;;;9.24;100.00;96332.63;5101836;28;21599;-72
2022/11/13 09:54:14;;;;;;;5.80;3.92;;;;;;;9.20;100.00;96331.94;5102771;28;21187;-71
2022/11/13 09:56:46;;;;;;;7.90;3.40;;;;;;;9.50;100.00;96332.19;5098404;28;20814;-70
2022/11/13 09:59:23;;;;;;;4.38;3.35;;;;;;;9.77;100.00;96340.31;5099490;28;24569;-70
2022/11/13 10:01:57;;;;;;;6.75;3.90;;;;;;;9.80;100.00;96353.09;5091894;28;20648;-71
2022/11/13 10:04:36;;;;;;;5.40;3.42;;;;;;;9.91;100.00;96343.03;5077386;28;20788;-71
2022/11/13 10:07:22;;;;;;;4.53;3.97;;;;;;;9.78;97.14;96331.63;5084204;28;20746;-71
2022/11/13 10:10:01;;;;;;;5.03;3.70;;;;;;;9.97;97.12;96330.69;5099623;28;20770;-71
2022/11/13 10:12:30;;;;;;;4.30;3.35;;;;;;;9.90;98.75;96333.63;5085638;28;20776;-71
2022/11/13 10:15:02;;;;;;;5.10;4.03;;;;;;;9.86;98.51;96336.41;5090332;28;25113;-71
2022/11/13 10:17:34;;;;;;;6.10;3.80;;;;;;;9.92;97.06;96330.94;5093157;28;24520;-71
2022/11/13 10:20:05;;;;;;;5.70;3.80;;;;;;;9.99;100.00;96331.47;5099324;28;24930;-71
2022/11/13 10:22:38;;;;;;;4.00;3.58;;;;;;;10.12;100.00;96322.13;5097346;28;24443;-71
2022/11/13 10:25:12;;;;;;;5.60;4.18;;;;;;;10.00;99.72;96331.38;5089485;28;20717;-70
2022/11/13 10:27:39;;;;;;;7.15;4.43;;;;;;;9.89;100.00;96333.69;5092846;28;20677;-71
2022/11/13 10:30:12;;;;;;;5.43;3.90;;;;;;;10.01;97.45;96329.63;5092989;28;20771;-71
2022/11/13 10:32:39;;;;;;;5.82;4.43;;;;;;;9.79;94.01;96335.06;5093230;28;20719;-71
2022/11/13 10:35:28;;;;;;;5.25;4.30;;;;;;;9.76;98.86;96337.81;5096661;28;24532;-71
2022/11/13 10:38:02;;;;;;;4.90;4.22;;;;;;;9.82;97.90;96322.78;5096034;28;20719;-71
2022/11/13 10:40:33;;;;;;;5.38;4.50;;;;;;;9.96;100.00;96319.50;5095606;28;20663;-70
2022/11/13 10:43:13;;;;;;;5.43;4.35;;;;;;;9.53;100.00;96311.38;5098589;28;24438;-71
2022/11/13 10:45:40;;;;;;;4.10;3.77;;;;;;;9.45;100.00;96305.72;5098250;28;20731;-71
2022/11/13 10:48:19;;;;;;;4.70;4.15;;;;;;;9.90;96.79;96299.97;5096733;28;20806;-71
2022/11/13 10:50:55;;;;;;;6.10;4.72;;;;;;;9.74;100.00;96301.66;5083034;28;21109;-71
2022/11/13 10:53:22;;;;;;;6.13;4.10;;;;;;;9.86;100.00;96298.47;5091642;28;20681;-71
2022/11/13 10:55:54;;;;;;;5.88;4.60;;;;;;;9.97;100.00;96305.66;5100318;28;21101;-70
2022/11/13 10:58:20;;;;;;;6.65;4.40;;;;;;;10.00;99.64;96297.75;5092659;28;24479;-70
2022/11/13 11:00:48;;;;;;;7.28;5.15;;;;;;;9.87;99.95;96287.19;5098132;28;24465;-70
2022/11/13 11:03:17;;;;;;;6.05;4.20;;;;;;;9.85;97.65;96281.25;5096427;28;24539;-70
2022/11/13 11:05:54;;;;;;;5.05;4.55;;;;;;;9.91;100.00;96274.94;5104254;28;20770;-71
2022/11/13 11:08:25;;;;;;;6.40;4.70;;;;;;;9.80;97.66;96272.91;5098892;28;24438;-71
2022/11/13 11:13:42;;;;;;;4.85;4.35;;;;;;;10.03;100.00;96257.94;5100460;28;24432;-71
2022/11/13 11:16:14;;;;;;;7.05;4.70;;;;;;;9.96;96.48;96251.41;5100421;28;24441;-70
2022/11/13 11:18:47;;;;;;;5.65;4.20;;;;;;;9.91;100.00;96249.06;5099894;28;20678;-71
2022/11/13 11:21:19;;;;;;;6.03;4.55;;;;;;;9.87;100.00;96243.22;5099466;28;24469;-71
2022/11/13 11:23:53;;;;;;;5.30;4.57;;;;;;;9.78;99.28;96237.69;5102446;28;20719;-70
2022/11/13 11:26:24;;;;;;;6.63;4.55;;;;;;;9.69;100.00;96244.16;5093358;28;21329;-70
2022/11/13 11:29:00;;;;;;;9.38;4.72;;;;;;;9.79;100.00;96229.84;5099740;28;21106;-70
2022/11/13 11:31:35;;;;;;;5.93;4.40;;;;;;;9.84;100.00;96230.44;5090156;28;20772;-70
2022/11/13 11:34:11;;;;;;;5.65;4.90;;;;;;;9.96;100.00;96230.72;5094242;28;20767;-70
2022/11/13 11:36:46;;;;;;;5.22;4.55;;;;;;;10.05;96.10;96225.03;5093737;28;20688;-71
2022/11/13 11:39:26;;;;;;;6.15;4.85;;;;;;;10.13;100.00;96220.31;5090128;28;25011;-71
2022/11/13 11:42:00;;;;;;;5.55;4.30;;;;;;;9.93;100.00;96204.06;5087459;28;20785;-71